sensor_id;sensor_type;location;lat;lon;timestamp;pressure;altitude;pressure_sealevel;temperature;humidity
21096;BME280;10706;49.036;12.112;2022-08-03T00:00:52;97819.19;;;19.96;68.30
21096;BME280;10706;49.036;12.112;2022-08-03T00:03:17;97823.50;;;19.97;68.42
21096;BME280;10706;49.036;12.112;2022-08-03T00:05:43;97821.16;;;19.91;68.10
21096;BME280;10706;49.036;12.112;2022-08-03T00:08:09;97819.56;;;19.90;68.75
21096;BME280;10706;49.036;12.112;2022-08-03T00:10:35;97818.84;;;19.84;68.40
21096;BME280;10706;49.036;12.112;2022-08-03T00:13:00;97822.78;;;19.92;68.28
21096;BME280;10706;49.036;12.112;2022-08-03T00:15:26;97820.22;;;19.81;69.18
21096;BME280;10706;49.036;12.112;2022-08-03T00:17:52;97819.41;;;19.81;68.67
21096;BME280;10706;49.036;12.112;2022-08-03T00:20:18;97814.00;;;19.81;68.44
21096;BME280;10706;49.036;12.112;2022-08-03T00:22:43;97817.78;;;19.80;69.42
21096;BME280;10706;49.036;12.112;2022-08-03T00:25:09;97813.47;;;19.79;69.24
21096;BME280;10706;49.036;12.112;2022-08-03T00:27:35;97815.69;;;19.77;69.00
21096;BME280;10706;49.036;12.112;2022-08-03T00:30:01;97817.06;;;19.74;69.47
21096;BME280;10706;49.036;12.112;2022-08-03T00:32:26;97819.81;;;19.69;69.74
21096;BME280;10706;49.036;12.112;2022-08-03T00:34:52;97813.34;;;19.65;69.85
21096;BME280;10706;49.036;12.112;2022-08-03T00:37:18;97808.78;;;19.66;69.19
21096;BME280;10706;49.036;12.112;2022-08-03T00:39:43;97809.63;;;19.61;69.67
21096;BME280;10706;49.036;12.112;2022-08-03T00:42:11;97802.63;;;19.60;70.10
21096;BME280;10706;49.036;12.112;2022-08-03T00:44:44;97803.19;;;19.57;70.32
21096;BME280;10706;49.036;12.112;2022-08-03T00:47:11;97803.19;;;19.57;69.40
21096;BME280;10706;49.036;12.112;2022-08-03T00:49:38;97805.09;;;19.56;70.09
21096;BME280;10706;49.036;12.112;2022-08-03T00:52:06;97801.06;;;19.54;69.71
21096;BME280;10706;49.036;12.112;2022-08-03T00:54:33;97801.72;;;19.46;70.14
21096;BME280;10706;49.036;12.112;2022-08-03T00:57:00;97813.34;;;19.46;69.91
21096;BME280;10706;49.036;12.112;2022-08-03T00:59:26;97809.03;;;19.45;70.74
21096;BME280;10706;49.036;12.112;2022-08-03T01:01:53;97806.69;;;19.38;70.89
21096;BME280;10706;49.036;12.112;2022-08-03T01:04:18;97802.44;;;19.32;70.54
21096;BME280;10706;49.036;12.112;2022-08-03T01:07:15;97811.44;;;19.28;71.26
21096;BME280;10706;49.036;12.112;2022-08-03T01:12:34;97809.31;;;19.25;71.13
21096;BME280;10706;49.036;12.112;2022-08-03T01:15:32;97806.13;;;19.17;72.16
21096;BME280;10706;49.036;12.112;2022-08-03T01:18:48;97812.94;;;19.15;71.64
21096;BME280;10706;49.036;12.112;2022-08-03T01:21:33;97810.81;;;19.12;71.97
21096;BME280;10706;49.036;12.112;2022-08-03T01:27:28;97804.66;;;19.06;72.41
21096;BME280;10706;49.036;12.112;2022-08-03T01:30:05;97804.41;;;19.02;72.06
21096;BME280;10706;49.036;12.112;2022-08-03T01:32:54;97803.06;;;19.05;72.21
21096;BME280;10706;49.036;12.112;2022-08-03T01:35:34;97802.88;;;18.96;72.30
21096;BME280;10706;49.036;12.112;2022-08-03T01:38:05;97797.97;;;18.98;72.67
21096;BME280;10706;49.036;12.112;2022-08-03T01:40:33;97799.66;;;18.94;72.52
21096;BME280;10706;49.036;12.112;2022-08-03T01:43:02;97807.31;;;18.87;73.06
21096;BME280;10706;49.036;12.112;2022-08-03T01:45:29;97802.69;;;18.88;73.37
21096;BME280;10706;49.036;12.112;2022-08-03T01:47:57;97807.34;;;18.82;73.47
21096;BME280;10706;49.036;12.112;2022-08-03T01:50:27;97807.09;;;18.78;73.34
21096;BME280;10706;49.036;12.112;2022-08-03T01:52:54;97807.38;;;18.77;73.42
21096;BME280;10706;49.036;12.112;2022-08-03T01:55:22;97806.00;;;18.79;73.48
21096;BME280;10706;49.036;12.112;2022-08-03T01:57:49;97807.09;;;18.78;73.88
21096;BME280;10706;49.036;12.112;2022-08-03T02:00:17;97803.59;;;18.78;73.56
21096;BME280;10706;49.036;12.112;2022-08-03T02:02:47;97802.78;;;18.77;73.97
21096;BME280;10706;49.036;12.112;2022-08-03T02:05:15;97802.59;;;18.69;74.03
21096;BME280;10706;49.036;12.112;2022-08-03T02:07:44;97808.56;;;18.65;74.35
21096;BME280;10706;49.036;12.112;2022-08-03T02:10:13;97801.75;;;18.73;74.37
21096;BME280;10706;49.036;12.112;2022-08-03T02:12:43;97803.38;;;18.69;73.96
21096;BME280;10706;49.036;12.112;2022-08-03T02:15:11;97799.38;;;18.67;74.45
21096;BME280;10706;49.036;12.112;2022-08-03T02:17:40;97799.13;;;18.63;74.75
21096;BME280;10706;49.036;12.112;2022-08-03T02:20:11;97805.31;;;18.69;74.59
21096;BME280;10706;49.036;12.112;2022-08-03T02:22:40;97801.28;;;18.66;74.62
21096;BME280;10706;49.036;12.112;2022-08-03T02:25:09;97802.13;;;18.61;74.68
21096;BME280;10706;49.036;12.112;2022-08-03T02:27:39;97799.41;;;18.61;74.82
21096;BME280;10706;49.036;12.112;2022-08-03T02:30:10;97803.78;;;18.57;74.98
21096;BME280;10706;49.036;12.112;2022-08-03T02:32:40;97804.91;;;18.56;75.42
21096;BME280;10706;49.036;12.112;2022-08-03T02:35:12;97793.88;;;18.48;75.99
21096;BME280;10706;49.036;12.112;2022-08-03T02:37:45;97797.16;;;18.44;75.64
21096;BME280;10706;49.036;12.112;2022-08-03T02:40:12;97797.44;;;18.43;75.66
21096;BME280;10706;49.036;12.112;2022-08-03T02:42:39;97799.91;;;18.39;76.19
21096;BME280;10706;49.036;12.112;2022-08-03T02:45:09;97797.78;;;18.36;76.46
21096;BME280;10706;49.036;12.112;2022-08-03T02:47:40;97800.19;;;18.38;76.09
21096;BME280;10706;49.036;12.112;2022-08-03T02:50:11;97801.28;;;18.37;76.57
21096;BME280;10706;49.036;12.112;2022-08-03T02:52:39;97801.63;;;18.30;76.52
21096;BME280;10706;49.036;12.112;2022-08-03T02:55:08;97799.72;;;18.31;76.51
21096;BME280;10706;49.036;12.112;2022-08-03T02:57:35;97794.06;;;18.27;76.46
21096;BME280;10706;49.036;12.112;2022-08-03T03:00:04;97798.16;;;18.24;76.74
21096;BME280;10706;49.036;12.112;2022-08-03T03:02:31;97796.28;;;18.20;76.60
21096;BME280;10706;49.036;12.112;2022-08-03T03:04:58;97801.72;;;18.15;77.01
21096;BME280;10706;49.036;12.112;2022-08-03T03:07:26;97805.81;;;18.12;77.19
21096;BME280;10706;49.036;12.112;2022-08-03T03:09:52;97799.09;;;18.10;77.57
21096;BME280;10706;49.036;12.112;2022-08-03T03:12:19;97793.69;;;18.10;77.48
21096;BME280;10706;49.036;12.112;2022-08-03T03:14:45;97804.00;;;18.02;77.45
21096;BME280;10706;49.036;12.112;2022-08-03T03:17:11;97805.66;;;17.98;77.63
21096;BME280;10706;49.036;12.112;2022-08-03T03:19:40;97807.00;;;17.96;77.82
21096;BME280;10706;49.036;12.112;2022-08-03T03:22:07;97811.09;;;17.93;78.21
21096;BME280;10706;49.036;12.112;2022-08-03T03:24:35;97813.00;;;17.93;78.09
21096;BME280;10706;49.036;12.112;2022-08-03T03:27:02;97813.81;;;17.88;78.78
21096;BME280;10706;49.036;12.112;2022-08-03T03:29:29;97815.72;;;17.87;78.32
21096;BME280;10706;49.036;12.112;2022-08-03T03:31:55;97815.19;;;17.85;78.50
21096;BME280;10706;49.036;12.112;2022-08-03T03:34:22;97818.69;;;17.81;78.83
21096;BME280;10706;49.036;12.112;2022-08-03T03:36:48;97816.50;;;17.83;78.80
21096;BME280;10706;49.036;12.112;2022-08-03T03:39:14;97820.06;;;17.78;78.89
21096;BME280;10706;49.036;12.112;2022-08-03T03:41:40;97821.97;;;17.78;79.34
21096;BME280;10706;49.036;12.112;2022-08-03T03:44:06;97823.56;;;17.79;79.21
21096;BME280;10706;49.036;12.112;2022-08-03T03:46:31;97821.44;;;17.76;79.28
21096;BME280;10706;49.036;12.112;2022-08-03T03:48:58;97817.13;;;17.69;79.39
21096;BME280;10706;49.036;12.112;2022-08-03T03:51:24;97822.28;;;17.71;79.35
21096;BME280;10706;49.036;12.112;2022-08-03T03:54:00;97823.91;;;17.72;79.25
21096;BME280;10706;49.036;12.112;2022-08-03T03:56:27;97825.22;;;17.75;79.02
21096;BME280;10706;49.036;12.112;2022-08-03T03:58:54;97830.63;;;17.75;79.01
21096;BME280;10706;49.036;12.112;2022-08-03T04:01:21;97825.78;;;17.72;79.59
21096;BME280;10706;49.036;12.112;2022-08-03T04:03:47;97829.50;;;17.81;79.22
21096;BME280;10706;49.036;12.112;2022-08-03T04:06:13;97831.41;;;17.75;79.53
21096;BME280;10706;49.036;12.112;2022-08-03T04:08:57;97828.72;;;17.75;79.76
21096;BME280;10706;49.036;12.112;2022-08-03T04:11:51;97838.47;;;17.71;79.96
21096;BME280;10706;49.036;12.112;2022-08-03T04:14:23;97834.44;;;17.68;79.64
21096;BME280;10706;49.036;12.112;2022-08-03T04:17:03;97836.88;;;17.70;79.61
21096;BME280;10706;49.036;12.112;2022-08-03T04:19:37;97835.50;;;17.73;79.92
21096;BME280;10706;49.036;12.112;2022-08-03T04:22:17;97835.75;;;17.76;79.74
21096;BME280;10706;49.036;12.112;2022-08-03T04:24:51;97841.44;;;17.75;79.75
21096;BME280;10706;49.036;12.112;2022-08-03T04:27:22;97839.81;;;17.74;80.20
21096;BME280;10706;49.036;12.112;2022-08-03T04:29:52;97846.28;;;17.78;79.80
21096;BME280;10706;49.036;12.112;2022-08-03T04:32:20;97853.28;;;17.79;79.68
21096;BME280;10706;49.036;12.112;2022-08-03T04:34:50;97849.50;;;17.85;80.14
21096;BME280;10706;49.036;12.112;2022-08-03T04:37:39;97848.69;;;17.84;79.98
21096;BME280;10706;49.036;12.112;2022-08-03T04:40:12;97844.34;;;17.88;79.67
21096;BME280;10706;49.036;12.112;2022-08-03T04:42:39;97846.22;;;17.93;79.32
21096;BME280;10706;49.036;12.112;2022-08-03T04:45:10;97849.16;;;17.97;79.44
21096;BME280;10706;49.036;12.112;2022-08-03T04:47:37;97852.63;;;18.02;79.40
21096;BME280;10706;49.036;12.112;2022-08-03T04:50:04;97860.13;;;18.11;79.36
21096;BME280;10706;49.036;12.112;2022-08-03T04:52:31;97853.38;;;18.13;79.32
21096;BME280;10706;49.036;12.112;2022-08-03T04:54:58;97868.22;;;18.16;79.41
21096;BME280;10706;49.036;12.112;2022-08-03T04:57:24;97875.97;;;18.22;79.35
21096;BME280;10706;49.036;12.112;2022-08-03T04:59:51;97870.56;;;18.27;79.16
21096;BME280;10706;49.036;12.112;2022-08-03T05:02:22;97874.81;;;18.34;78.43
21096;BME280;10706;49.036;12.112;2022-08-03T05:04:48;97867.78;;;18.38;78.67
21096;BME280;10706;49.036;12.112;2022-08-03T05:07:16;97861.75;;;18.46;78.12
21096;BME280;10706;49.036;12.112;2022-08-03T05:09:42;97871.44;;;18.52;78.71
21096;BME280;10706;49.036;12.112;2022-08-03T05:12:08;97865.38;;;18.65;77.71
21096;BME280;10706;49.036;12.112;2022-08-03T05:14:38;97866.88;;;18.77;77.30
21096;BME280;10706;49.036;12.112;2022-08-03T05:17:04;97864.16;;;18.82;77.50
21096;BME280;10706;49.036;12.112;2022-08-03T05:19:30;97867.34;;;18.89;76.44
21096;BME280;10706;49.036;12.112;2022-08-03T05:21:56;97863.44;;;19.00;76.14
21096;BME280;10706;49.036;12.112;2022-08-03T05:24:22;97859.56;;;19.07;76.49
21096;BME280;10706;49.036;12.112;2022-08-03T05:26:47;97868.91;;;19.19;76.00
21096;BME280;10706;49.036;12.112;2022-08-03T05:29:13;97866.63;;;19.32;75.12
21096;BME280;10706;49.036;12.112;2022-08-03T05:31:39;97861.31;;;19.46;74.71
21096;BME280;10706;49.036;12.112;2022-08-03T05:34:05;97869.94;;;19.48;75.00
21096;BME280;10706;49.036;12.112;2022-08-03T05:36:31;97858.09;;;19.62;74.86
21096;BME280;10706;49.036;12.112;2022-08-03T05:38:56;97867.75;;;19.69;73.77
21096;BME280;10706;49.036;12.112;2022-08-03T05:41:22;97861.97;;;19.80;72.97
21096;BME280;10706;49.036;12.112;2022-08-03T05:43:49;97871.13;;;19.85;73.31
21096;BME280;10706;49.036;12.112;2022-08-03T05:46:15;97867.91;;;20.02;72.11
21096;BME280;10706;49.036;12.112;2022-08-03T05:48:41;97864.06;;;20.03;71.70
21096;BME280;10706;49.036;12.112;2022-08-03T05:51:07;97865.69;;;20.04;72.71
21096;BME280;10706;49.036;12.112;2022-08-03T05:53:37;97877.34;;;20.04;71.77
21096;BME280;10706;49.036;12.112;2022-08-03T05:56:03;97870.53;;;20.07;72.21
21096;BME280;10706;49.036;12.112;2022-08-03T05:58:29;97873.38;;;20.15;72.66
21096;BME280;10706;49.036;12.112;2022-08-03T06:00:55;97873.25;;;20.26;72.61
21096;BME280;10706;49.036;12.112;2022-08-03T06:03:20;97868.47;;;20.36;71.30
21096;BME280;10706;49.036;12.112;2022-08-03T06:05:46;97875.41;;;20.43;71.04
21096;BME280;10706;49.036;12.112;2022-08-03T06:08:12;97879.34;;;20.50;70.87
21096;BME280;10706;49.036;12.112;2022-08-03T06:10:38;97871.44;;;20.54;71.52
21096;BME280;10706;49.036;12.112;2022-08-03T06:13:04;97880.03;;;20.61;70.09
21096;BME280;10706;49.036;12.112;2022-08-03T06:15:29;97881.84;;;20.66;70.70
21096;BME280;10706;49.036;12.112;2022-08-03T06:17:58;97881.97;;;20.74;70.82
21096;BME280;10706;49.036;12.112;2022-08-03T06:20:24;97883.50;;;20.94;68.94
21096;BME280;10706;49.036;12.112;2022-08-03T06:25:29;97887.59;;;20.78;69.88
21096;BME280;10706;49.036;12.112;2022-08-03T06:27:58;97885.03;;;21.01;70.08
21096;BME280;10706;49.036;12.112;2022-08-03T06:30:25;97881.41;;;21.05;69.09
21096;BME280;10706;49.036;12.112;2022-08-03T06:32:54;97870.47;;;21.38;69.25
21096;BME280;10706;49.036;12.112;2022-08-03T06:35:20;97887.38;;;21.35;68.09
21096;BME280;10706;49.036;12.112;2022-08-03T06:37:57;97888.00;;;21.46;68.31
21096;BME280;10706;49.036;12.112;2022-08-03T06:40:39;97894.22;;;21.60;68.55
21096;BME280;10706;49.036;12.112;2022-08-03T06:43:11;97889.38;;;21.85;67.31
21096;BME280;10706;49.036;12.112;2022-08-03T06:45:42;97887.16;;;21.87;67.08
21096;BME280;10706;49.036;12.112;2022-08-03T06:48:14;97894.31;;;22.05;66.33
21096;BME280;10706;49.036;12.112;2022-08-03T06:51:04;97888.59;;;22.07;66.76
21096;BME280;10706;49.036;12.112;2022-08-03T06:53:51;97896.34;;;22.13;66.42
21096;BME280;10706;49.036;12.112;2022-08-03T07:02:46;97888.13;;;22.64;65.13
21096;BME280;10706;49.036;12.112;2022-08-03T07:05:13;97894.41;;;22.73;64.97
21096;BME280;10706;49.036;12.112;2022-08-03T07:07:40;97889.28;;;22.71;63.98
21096;BME280;10706;49.036;12.112;2022-08-03T07:10:07;97886.16;;;22.87;63.26
21096;BME280;10706;49.036;12.112;2022-08-03T07:12:34;97891.00;;;22.90;63.04
21096;BME280;10706;49.036;12.112;2022-08-03T07:15:01;97882.63;;;22.86;61.32
21096;BME280;10706;49.036;12.112;2022-08-03T07:17:29;97884.72;;;22.89;60.60
21096;BME280;10706;49.036;12.112;2022-08-03T07:19:56;97872.94;;;23.03;60.23
21096;BME280;10706;49.036;12.112;2022-08-03T07:22:22;97878.94;;;23.14;60.66
21096;BME280;10706;49.036;12.112;2022-08-03T07:24:48;97884.84;;;23.07;59.73
21096;BME280;10706;49.036;12.112;2022-08-03T07:27:17;97879.81;;;23.00;59.23
21096;BME280;10706;49.036;12.112;2022-08-03T07:29:42;97882.44;;;23.05;59.41
21096;BME280;10706;49.036;12.112;2022-08-03T07:32:08;97875.47;;;23.22;60.51
21096;BME280;10706;49.036;12.112;2022-08-03T07:34:34;97880.97;;;23.39;59.46
21096;BME280;10706;49.036;12.112;2022-08-03T07:37:00;97876.66;;;23.47;59.07
21096;BME280;10706;49.036;12.112;2022-08-03T07:39:25;97880.72;;;23.67;60.20
21096;BME280;10706;49.036;12.112;2022-08-03T07:41:51;97871.47;;;23.94;59.19
21096;BME280;10706;49.036;12.112;2022-08-03T07:44:20;97874.38;;;24.15;58.84
21096;BME280;10706;49.036;12.112;2022-08-03T07:46:46;97876.00;;;24.16;58.07
21096;BME280;10706;49.036;12.112;2022-08-03T07:49:12;97872.94;;;24.35;58.41
21096;BME280;10706;49.036;12.112;2022-08-03T07:51:38;97870.03;;;24.40;58.30
21096;BME280;10706;49.036;12.112;2022-08-03T07:54:04;97868.63;;;24.25;56.43
21096;BME280;10706;49.036;12.112;2022-08-03T07:56:30;97872.28;;;24.30;56.12
21096;BME280;10706;49.036;12.112;2022-08-03T07:58:56;97869.72;;;24.33;56.26
21096;BME280;10706;49.036;12.112;2022-08-03T08:01:22;97874.22;;;24.47;57.30
21096;BME280;10706;49.036;12.112;2022-08-03T08:03:51;97867.16;;;24.54;57.03
21096;BME280;10706;49.036;12.112;2022-08-03T08:06:25;97866.31;;;24.71;57.18
21096;BME280;10706;49.036;12.112;2022-08-03T08:09:20;97869.00;;;24.89;55.25
21096;BME280;10706;49.036;12.112;2022-08-03T08:11:59;97863.38;;;24.85;54.75
21096;BME280;10706;49.036;12.112;2022-08-03T08:14:29;97867.75;;;24.77;53.90
21096;BME280;10706;49.036;12.112;2022-08-03T08:16:55;97864.22;;;24.86;55.41
21096;BME280;10706;49.036;12.112;2022-08-03T08:19:21;97864.47;;;25.01;55.33
21096;BME280;10706;49.036;12.112;2022-08-03T08:21:47;97862.59;;;25.32;56.35
21096;BME280;10706;49.036;12.112;2022-08-03T08:24:12;97854.47;;;25.53;54.69
21096;BME280;10706;49.036;12.112;2022-08-03T08:26:38;97857.94;;;25.62;54.55
21096;BME280;10706;49.036;12.112;2022-08-03T08:29:04;97860.69;;;25.62;52.58
21096;BME280;10706;49.036;12.112;2022-08-03T08:31:31;97862.91;;;25.60;54.55
21096;BME280;10706;49.036;12.112;2022-08-03T08:33:57;97857.59;;;25.64;53.93
21096;BME280;10706;49.036;12.112;2022-08-03T08:36:23;97865.72;;;25.81;53.84
21096;BME280;10706;49.036;12.112;2022-08-03T08:38:49;97862.75;;;25.86;50.35
21096;BME280;10706;49.036;12.112;2022-08-03T08:41:15;97860.47;;;25.88;50.97
21096;BME280;10706;49.036;12.112;2022-08-03T08:43:42;97857.97;;;25.83;50.79
21096;BME280;10706;49.036;12.112;2022-08-03T08:46:11;97856.94;;;25.96;50.81
21096;BME280;10706;49.036;12.112;2022-08-03T08:48:41;97860.72;;;26.25;51.55
21096;BME280;10706;49.036;12.112;2022-08-03T08:51:11;97851.38;;;26.26;50.56
21096;BME280;10706;49.036;12.112;2022-08-03T08:53:40;97849.25;;;26.32;50.47
21096;BME280;10706;49.036;12.112;2022-08-03T08:56:13;97849.25;;;26.65;50.79
21096;BME280;10706;49.036;12.112;2022-08-03T08:58:48;97854.75;;;26.77;49.32
21096;BME280;10706;49.036;12.112;2022-08-03T09:01:18;97850.53;;;26.80;49.48
21096;BME280;10706;49.036;12.112;2022-08-03T09:03:45;97854.09;;;26.81;47.75
21096;BME280;10706;49.036;12.112;2022-08-03T09:06:11;97856.34;;;26.66;47.45
21096;BME280;10706;49.036;12.112;2022-08-03T09:08:37;97850.19;;;26.82;49.25
21096;BME280;10706;49.036;12.112;2022-08-03T09:11:02;97855.25;;;27.04;48.52
21096;BME280;10706;49.036;12.112;2022-08-03T09:13:28;97858.03;;;27.17;49.37
21096;BME280;10706;49.036;12.112;2022-08-03T09:16:16;97840.25;;;27.35;48.36
21096;BME280;10706;49.036;12.112;2022-08-03T09:19:16;97847.06;;;27.53;47.00
21096;BME280;10706;49.036;12.112;2022-08-03T09:22:10;97845.13;;;27.54;46.99
21096;BME280;10706;49.036;12.112;2022-08-03T09:24:37;97843.53;;;27.65;47.20
21096;BME280;10706;49.036;12.112;2022-08-03T09:27:22;97837.53;;;27.76;46.42
21096;BME280;10706;49.036;12.112;2022-08-03T09:33:29;97841.41;;;27.99;46.02
21096;BME280;10706;49.036;12.112;2022-08-03T09:35:55;97830.34;;;28.24;44.79
21096;BME280;10706;49.036;12.112;2022-08-03T09:38:26;97835.13;;;27.86;45.68
21096;BME280;10706;49.036;12.112;2022-08-03T09:41:02;97838.56;;;27.96;45.59
21096;BME280;10706;49.036;12.112;2022-08-03T09:44:06;97833.34;;;28.19;45.43
21096;BME280;10706;49.036;12.112;2022-08-03T09:46:51;97831.88;;;28.09;44.32
21096;BME280;10706;49.036;12.112;2022-08-03T09:49:18;97837.06;;;28.26;44.69
21096;BME280;10706;49.036;12.112;2022-08-03T09:54:49;97834.31;;;27.98;43.55
21096;BME280;10706;49.036;12.112;2022-08-03T09:57:20;97831.19;;;28.12;42.51
21096;BME280;10706;49.036;12.112;2022-08-03T10:00:07;97835.06;;;28.23;43.30
21096;BME280;10706;49.036;12.112;2022-08-03T10:02:35;97827.94;;;28.50;42.67
21096;BME280;10706;49.036;12.112;2022-08-03T10:05:04;97827.72;;;28.56;41.98
21096;BME280;10706;49.036;12.112;2022-08-03T10:07:50;97830.84;;;28.70;41.68
21096;BME280;10706;49.036;12.112;2022-08-03T10:10:17;97818.25;;;28.85;40.60
21096;BME280;10706;49.036;12.112;2022-08-03T10:12:44;97819.56;;;29.07;40.76
21096;BME280;10706;49.036;12.112;2022-08-03T10:15:13;97813.88;;;28.68;39.01
21096;BME280;10706;49.036;12.112;2022-08-03T10:17:38;97819.84;;;28.86;41.58
21096;BME280;10706;49.036;12.112;2022-08-03T10:20:06;97808.41;;;29.00;40.92
21096;BME280;10706;49.036;12.112;2022-08-03T10:25:56;97798.13;;;28.81;37.95
21096;BME280;10706;49.036;12.112;2022-08-03T10:34:50;97808.88;;;29.02;37.10
21096;BME280;10706;49.036;12.112;2022-08-03T10:38:15;97803.19;;;29.26;38.28
21096;BME280;10706;49.036;12.112;2022-08-03T10:41:31;97796.69;;;29.70;37.04
21096;BME280;10706;49.036;12.112;2022-08-03T10:45:02;97788.31;;;29.82;37.04
21096;BME280;10706;49.036;12.112;2022-08-03T10:50:41;97795.00;;;30.01;36.58
21096;BME280;10706;49.036;12.112;2022-08-03T10:53:09;97787.31;;;30.10;36.42
21096;BME280;10706;49.036;12.112;2022-08-03T10:55:47;97792.09;;;30.33;34.14
21096;BME280;10706;49.036;12.112;2022-08-03T10:59:15;97789.66;;;30.31;34.60
21096;BME280;10706;49.036;12.112;2022-08-03T11:15:15;97772.94;;;30.63;33.32
21096;BME280;10706;49.036;12.112;2022-08-03T11:18:10;97771.59;;;30.53;34.00
21096;BME280;10706;49.036;12.112;2022-08-03T11:20:58;97772.34;;;30.96;33.73
21096;BME280;10706;49.036;12.112;2022-08-03T11:23:45;97770.38;;;30.97;32.80
21096;BME280;10706;49.036;12.112;2022-08-03T11:26:17;97766.78;;;30.93;32.55
21096;BME280;10706;49.036;12.112;2022-08-03T11:28:46;97767.91;;;31.15;33.95
21096;BME280;10706;49.036;12.112;2022-08-03T11:34:09;97762.66;;;30.83;31.39
21096;BME280;10706;49.036;12.112;2022-08-03T11:37:18;97762.66;;;31.06;32.05
21096;BME280;10706;49.036;12.112;2022-08-03T11:40:00;97754.41;;;31.33;31.43
21096;BME280;10706;49.036;12.112;2022-08-03T11:45:01;97753.81;;;30.93;30.83
21096;BME280;10706;49.036;12.112;2022-08-03T11:47:53;97755.25;;;31.10;30.59
21096;BME280;10706;49.036;12.112;2022-08-03T11:50:20;97750.81;;;31.32;29.45
21096;BME280;10706;49.036;12.112;2022-08-03T11:52:47;97751.78;;;31.44;30.32
21096;BME280;10706;49.036;12.112;2022-08-03T11:55:17;97745.78;;;31.38;30.08
21096;BME280;10706;49.036;12.112;2022-08-03T11:57:45;97741.38;;;31.33;30.35
21096;BME280;10706;49.036;12.112;2022-08-03T12:00:31;97748.06;;;31.89;28.40
21096;BME280;10706;49.036;12.112;2022-08-03T12:03:10;97743.44;;;33.31;28.48
21096;BME280;10706;49.036;12.112;2022-08-03T12:05:51;97750.28;;;34.46;27.12
21096;BME280;10706;49.036;12.112;2022-08-03T12:08:29;97737.94;;;35.48;25.77
21096;BME280;10706;49.036;12.112;2022-08-03T12:10:58;97723.97;;;33.86;26.14
21096;BME280;10706;49.036;12.112;2022-08-03T12:13:25;97731.06;;;33.84;26.11
21096;BME280;10706;49.036;12.112;2022-08-03T12:16:01;97736.78;;;35.35;25.37
21096;BME280;10706;49.036;12.112;2022-08-03T12:18:27;97726.47;;;35.17;24.95
21096;BME280;10706;49.036;12.112;2022-08-03T12:21:10;97726.53;;;37.25;22.30
21096;BME280;10706;49.036;12.112;2022-08-03T12:23:37;97720.59;;;37.57;21.97
21096;BME280;10706;49.036;12.112;2022-08-03T12:26:06;97718.78;;;38.08;21.08
21096;BME280;10706;49.036;12.112;2022-08-03T12:28:33;97727.47;;;37.83;21.22
21096;BME280;10706;49.036;12.112;2022-08-03T12:31:05;97713.34;;;37.98;21.35
21096;BME280;10706;49.036;12.112;2022-08-03T12:36:24;97709.09;;;36.12;22.89
21096;BME280;10706;49.036;12.112;2022-08-03T12:39:01;97704.06;;;37.77;21.19
21096;BME280;10706;49.036;12.112;2022-08-03T12:41:52;97703.59;;;38.13;20.73
21096;BME280;10706;49.036;12.112;2022-08-03T12:44:38;97703.44;;;39.62;19.57
21096;BME280;10706;49.036;12.112;2022-08-03T12:47:05;97693.06;;;37.93;20.80
21096;BME280;10706;49.036;12.112;2022-08-03T12:49:52;97697.56;;;36.73;21.54
21096;BME280;10706;49.036;12.112;2022-08-03T12:52:21;97694.00;;;36.69;21.90
21096;BME280;10706;49.036;12.112;2022-08-03T12:54:58;97694.97;;;38.00;20.85
21096;BME280;10706;49.036;12.112;2022-08-03T12:57:24;97701.56;;;39.95;18.25
21096;BME280;10706;49.036;12.112;2022-08-03T12:59:50;97693.25;;;38.10;18.83
21096;BME280;10706;49.036;12.112;2022-08-03T13:02:24;97693.81;;;39.23;19.59
21096;BME280;10706;49.036;12.112;2022-08-03T13:04:53;97674.16;;;40.23;17.48
21096;BME280;10706;49.036;12.112;2022-08-03T13:07:21;97688.22;;;39.23;18.09
21096;BME280;10706;49.036;12.112;2022-08-03T13:09:53;97682.66;;;38.76;18.73
21096;BME280;10706;49.036;12.112;2022-08-03T13:12:25;97676.72;;;37.96;18.72
21096;BME280;10706;49.036;12.112;2022-08-03T13:14:57;97685.63;;;38.65;18.15
21096;BME280;10706;49.036;12.112;2022-08-03T13:17:23;97691.94;;;39.16;17.90
21096;BME280;10706;49.036;12.112;2022-08-03T13:19:53;97687.47;;;37.66;18.86
21096;BME280;10706;49.036;12.112;2022-08-03T13:22:37;97687.66;;;36.06;20.19
21096;BME280;10706;49.036;12.112;2022-08-03T13:25:03;97685.25;;;36.11;20.59
21096;BME280;10706;49.036;12.112;2022-08-03T13:27:30;97675.63;;;37.55;19.57
21096;BME280;10706;49.036;12.112;2022-08-03T13:29:57;97686.34;;;38.93;18.98
21096;BME280;10706;49.036;12.112;2022-08-03T13:32:24;97681.50;;;39.20;18.98
21096;BME280;10706;49.036;12.112;2022-08-03T13:34:49;97676.09;;;37.50;18.88
21096;BME280;10706;49.036;12.112;2022-08-03T13:37:15;97677.41;;;38.58;18.78
21096;BME280;10706;49.036;12.112;2022-08-03T13:39:41;97673.25;;;39.13;19.02
21096;BME280;10706;49.036;12.112;2022-08-03T13:42:07;97678.78;;;38.93;18.58
21096;BME280;10706;49.036;12.112;2022-08-03T13:44:33;97677.72;;;38.63;19.27
21096;BME280;10706;49.036;12.112;2022-08-03T13:47:02;97671.97;;;38.47;18.70
21096;BME280;10706;49.036;12.112;2022-08-03T13:49:28;97666.59;;;37.78;19.39
21096;BME280;10706;49.036;12.112;2022-08-03T13:51:55;97666.88;;;36.81;20.89
21096;BME280;10706;49.036;12.112;2022-08-03T13:54:21;97661.94;;;35.94;21.35
21096;BME280;10706;49.036;12.112;2022-08-03T13:56:48;97665.06;;;35.01;22.09
21096;BME280;10706;49.036;12.112;2022-08-03T13:59:24;97660.56;;;33.67;23.14
21096;BME280;10706;49.036;12.112;2022-08-03T14:01:52;97663.34;;;33.67;24.38
21096;BME280;10706;49.036;12.112;2022-08-03T14:04:19;97658.09;;;33.44;23.24
21096;BME280;10706;49.036;12.112;2022-08-03T14:06:45;97657.34;;;33.47;24.47